Vail, CO (81658)

11:28 AM MST on February 14, 2016 (GMT -0700)
Whiskey Hill, EagleVail | | Change Station
CLOSE
Current Station
Personal Weather Station
Location: Avon, CO
Elevation: 7959 ft
Nearby Weather Stations
Active Advisory: Winter Weather Advisory

Elev 7959 ft 39.61 °N, 106.48 °W | Updated 13 minutes ago

Mostly Cloudy
Mostly Cloudy
36.3 °F
Feels Like 36 °F
N
1.9
Wind Variable Wind from SSW
Gusts 6.3 mph

Today
High -- | Low -- °F
--% Chance of Precip.
Yesterday
High -- | Low -- °F
Precip. -- in
Pressure 30.12 in
Visibility 10.0 miles
Clouds Mostly Cloudy 10000 ft
Windchill 36 °F
Dew Point 6 °F
Humidity 27%
Rainfall 0.00 in
Snow Depth Not available.
7:00 AM 5:40 PM
Waxing Crescent, 44% visible
METAR KEGE 141750Z 00000KT 10SM BKN100 M01/M07 A3012
Pressure 30.12 in
Visibility 10.0 miles
Clouds Mostly Cloudy 10000 ft
Windchill 36 °F
Dew Point 6 °F
Humidity 27%
Rainfall 0.00 in
Snow Depth Not available.
7:00 AM 5:40 PM
Waxing Crescent, 44% visible
METAR KEGE 141750Z 00000KT 10SM BKN100 M01/M07 A3012

10-Day Weather Forecast

Almanac

Astronomy

Feb. 14, 2016 Rise Set
Actual Time
Civil Twilight
Nautical Twilight
Astronomical Twilight
Moon
Length of Visible Light
Length of Day
Tomorrow will be .
, % of the Moon is Illuminated

Today's Extremes

State Highs State Lows

Community

WunderPhotos

Upload Photos

1,892,869 photos uploaded!

WunderBlog® & News

Nearby

Air Quality

  Air Quality AQ Index Pollutant
Not available.

Snow Depth

Station Depth Elevation

Earthquake Activity

City Distance Mag. Time & Date
Minimum magnitude displayed is 2.5.

Coastal Water Temperatures

Place Temperature

Stations

Nearby Weather Stations

Station Location Temp. Windchill Dew Point Humidity Wind Precip. Elev Updated Type
                   

Watches & Warnings

Winter Weather Advisory
Issued: 10:42 AM MST Feb. 14, 2016 – National Weather Service

... Winter Weather Advisory remains in effect for the higher
elevations of Eagle County from 2 PM this afternoon to 5 PM MST
Monday...

* locations include the city of... Vail.

* Timing... most of the snowfall accumulation is expected this late
afternoon and overnight.

* Snow accumulation... 3 to 6 inches with locally higher amounts
near The Summit of Vail Pass.

* Winds... west to northwest 10 to 20 mph with gusts up to 40 mph
on exposed ridges.

* Impacts... travel will be difficult... especially along
Interstate 70 over Vail Pass. Be prepared for winter driving
conditions.

Precautionary/preparedness actions...

A Winter Weather Advisory means that periods of snow and/or
blowing snow will cause travel difficulties. Be prepared for
slippery roads and limited visibilities... and use caution while
driving.